KWST/WST METAR and TAF weather

Enter ICAO airport designator
Station Type Date Time Source
KWST METAR 2019/12/06 08:53 UTC NOAA

KWST 060853Z AUTO 00000KT 10SM CLR 00/M08 A3010 RMK AO2 SLP193 T00001083 51019


Station Type Date Time Source
KWST Decoded METAR 2019/12/06 08:53 UTC NOAA

WESTERLY STATE AIRPORT, RI, United States (KWST) 41-21N 071-48W 21M
Dec 06, 2019 - 03:53 AM EST / 2019.12.06 0853 UTC
Wind: Calm:0
Visibility: 10 mile(s):0
Sky conditions: clear
Temperature: 32.0 F (0.0 C)
Dew Point: 17.1 F (-8.3 C)
Relative Humidity: 53%
Pressure (altimeter): 30.1 in. Hg (1019 hPa)
Pressure tendency: 0.06 inches (1.9 hPa) higher than three hours ago
ob: KWST 060853Z AUTO 00000KT 10SM CLR 00/M08 A3010 RMK AO2 SLP193 T00001083 51019
cycle: 9

Station Type Date Time Source
KWST TAF UTC NOAA

Error!

Example: see airport list